createdAt,value
2023-05-05T00:03:11.756Z,54.22
2023-05-05T00:08:14.644Z,54.34
2023-05-05T00:13:18.858Z,54.66
2023-05-05T00:18:21.712Z,55.15
2023-05-05T00:23:25.627Z,55.35
2023-05-05T00:28:28.441Z,54.89
2023-05-05T00:33:31.279Z,55.12
2023-05-05T00:38:33.998Z,56.21
2023-05-05T00:43:36.722Z,55.84
2023-05-05T00:48:40.140Z,56.24
2023-05-05T00:53:45.115Z,56.20
2023-05-05T00:58:49.155Z,56.39
2023-05-05T01:03:52.888Z,56.81
2023-05-05T01:09:02.243Z,57.05
2023-05-05T01:14:19.439Z,57.11
2023-05-05T01:19:40.939Z,57.24
2023-05-05T01:25:03.071Z,57.64
2023-05-05T01:30:43.811Z,57.98
2023-05-05T01:35:53.915Z,57.84
2023-05-05T01:41:12.180Z,58.20
2023-05-05T01:46:16.136Z,58.42
2023-05-05T01:51:21.779Z,58.94
2023-05-05T01:56:29.285Z,59.09
2023-05-05T02:01:32.074Z,59.02
2023-05-05T02:06:35.866Z,59.35
2023-05-05T02:11:39.604Z,59.41
2023-05-05T02:16:43.228Z,59.66
2023-05-05T02:21:46.019Z,59.50
2023-05-05T02:26:51.905Z,59.84
2023-05-05T02:32:02.088Z,60.11
2023-05-05T02:37:07.362Z,59.92
2023-05-05T02:42:13.367Z,60.35
2023-05-05T02:47:16.397Z,60.75
2023-05-05T02:52:19.260Z,60.58
2023-05-05T02:57:31.620Z,60.48
2023-05-05T03:02:45.415Z,60.82
2023-05-05T03:07:56.214Z,60.79
2023-05-05T03:13:02.228Z,60.98
2023-05-05T03:18:06.737Z,60.89
2023-05-05T03:23:10.362Z,60.81
2023-05-05T03:28:15.721Z,60.97
2023-05-05T03:33:18.709Z,71.24
2023-05-05T03:38:21.635Z,68.12
2023-05-05T03:43:24.380Z,53.61
2023-05-05T03:48:27.288Z,51.66
2023-05-05T03:53:30.191Z,52.58
2023-05-05T03:58:32.912Z,53.69
2023-05-05T04:03:35.809Z,55.06
2023-05-05T04:08:38.607Z,56.05
2023-05-05T04:13:43.609Z,57.12
2023-05-05T04:18:46.369Z,58.27
2023-05-05T04:23:49.297Z,58.71
2023-05-05T04:28:52.049Z,59.36
2023-05-05T04:33:55.276Z,59.60
2023-05-05T04:38:58.221Z,60.12
2023-05-05T04:44:01.022Z,60.48
2023-05-05T04:49:05.213Z,60.74
2023-05-05T04:54:10.711Z,60.88
2023-05-05T04:59:14.371Z,61.34
2023-05-05T05:04:18.762Z,61.41
2023-05-05T05:09:21.606Z,61.92
2023-05-05T05:14:24.435Z,71.17
2023-05-05T05:19:27.122Z,68.09
2023-05-05T05:24:30.187Z,52.83
2023-05-05T05:29:37.071Z,50.90
2023-05-05T05:34:43.805Z,52.76
2023-05-05T05:39:53.142Z,54.69
2023-05-05T05:44:57.378Z,56.04
2023-05-05T05:50:00.197Z,57.02
2023-05-05T05:55:03.570Z,57.86
2023-05-05T06:00:07.363Z,58.23
2023-05-05T06:05:11.036Z,58.60
2023-05-05T06:10:26.694Z,58.35
2023-05-05T06:15:30.577Z,58.65
2023-05-05T06:20:33.401Z,58.50
2023-05-05T06:25:37.197Z,58.27
2023-05-05T06:30:40.209Z,57.64
2023-05-05T06:35:43.299Z,57.52
2023-05-05T06:40:52.198Z,56.45
2023-05-05T06:45:55.243Z,55.79
2023-05-05T06:50:58.069Z,55.21
2023-05-05T06:56:00.828Z,54.47
2023-05-05T07:01:04.213Z,53.30
2023-05-05T07:06:07.190Z,52.68
2023-05-05T07:11:09.895Z,52.28
2023-05-05T07:16:15.488Z,51.80
2023-05-05T07:21:18.399Z,51.20
2023-05-05T07:26:21.267Z,50.32
2023-05-05T07:31:24.517Z,49.73
2023-05-05T07:36:27.963Z,49.63
2023-05-05T07:41:31.291Z,49.45
2023-05-05T07:46:34.413Z,48.90
2023-05-05T07:51:37.707Z,48.70
2023-05-05T07:56:40.529Z,48.65
2023-05-05T08:01:43.506Z,48.33
2023-05-05T08:06:48.622Z,47.48
2023-05-05T08:11:51.444Z,46.42
2023-05-05T08:16:57.565Z,46.32
2023-05-05T08:22:01.579Z,45.89
2023-05-05T08:27:04.501Z,45.77
2023-05-05T08:32:07.228Z,45.16
2023-05-05T08:37:09.940Z,44.41
2023-05-05T08:42:17.604Z,43.72
2023-05-05T08:47:29.072Z,43.34
2023-05-05T08:52:42.107Z,42.56
2023-05-05T08:57:53.025Z,42.24
2023-05-05T09:03:01.568Z,41.69
2023-05-05T09:08:09.757Z,41.46
2023-05-05T09:18:33.376Z,40.27
2023-05-05T09:23:36.135Z,39.70
2023-05-05T09:28:51.418Z,39.84
2023-05-05T09:33:54.554Z,38.96
2023-05-05T09:39:06.228Z,38.72
2023-05-05T09:44:13.406Z,38.73
2023-05-05T09:49:54.036Z,38.02
2023-05-05T09:54:59.414Z,37.21
2023-05-05T10:00:07.269Z,37.93
2023-05-05T10:05:18.203Z,37.50
2023-05-05T10:10:21.134Z,37.27
2023-05-05T10:15:24.295Z,37.07
2023-05-05T10:20:27.550Z,37.20
2023-05-05T10:25:35.298Z,37.08
2023-05-05T10:30:44.084Z,36.51
2023-05-05T10:36:02.526Z,36.30
2023-05-05T10:41:20.820Z,35.89
2023-05-05T10:46:28.275Z,35.69
2023-05-05T10:52:21.370Z,35.05
2023-05-05T10:57:59.269Z,34.87
2023-05-05T11:03:19.129Z,35.07
2023-05-05T11:08:27.194Z,34.46
2023-05-05T11:13:30.598Z,33.96
2023-05-05T11:18:53.021Z,33.42
2023-05-05T11:24:27.618Z,33.21
2023-05-05T11:30:04.476Z,32.41
2023-05-05T11:35:08.224Z,32.48
2023-05-05T11:40:22.377Z,32.02
2023-05-05T11:45:25.965Z,32.10
2023-05-05T11:50:35.860Z,32.08
2023-05-05T11:55:38.662Z,31.70
2023-05-05T12:00:44.468Z,31.57
2023-05-05T12:05:48.799Z,31.78
2023-05-05T12:10:51.641Z,31.55
2023-05-05T12:15:54.373Z,30.73
2023-05-05T12:20:57.256Z,30.72
2023-05-05T12:26:01.016Z,30.46
2023-05-05T12:31:08.085Z,30.73
2023-05-05T12:36:12.261Z,30.72
2023-05-05T12:41:22.855Z,30.49
2023-05-05T12:46:27.217Z,30.10
2023-05-05T12:51:32.091Z,29.97
2023-05-05T12:56:36.288Z,30.19
2023-05-05T13:01:50.970Z,30.18
2023-05-05T13:07:13.525Z,30.12
2023-05-05T13:12:19.742Z,30.26
2023-05-05T13:17:23.977Z,30.16
2023-05-05T13:22:26.803Z,29.94
2023-05-05T13:27:29.650Z,29.97
2023-05-05T13:32:32.400Z,29.61
2023-05-05T13:37:35.152Z,29.41
2023-05-05T13:42:38.196Z,28.99
2023-05-05T13:47:42.126Z,29.28
2023-05-05T13:52:45.101Z,28.82
2023-05-05T13:57:47.849Z,28.61
2023-05-05T14:02:51.073Z,28.65
2023-05-05T14:07:57.095Z,28.51
2023-05-05T14:12:59.756Z,28.55
2023-05-05T14:18:02.653Z,28.95
2023-05-05T14:23:05.468Z,28.64
2023-05-05T14:28:08.280Z,27.99
2023-05-05T14:33:11.143Z,27.85
2023-05-05T14:38:13.844Z,27.59
2023-05-05T14:43:16.788Z,27.16
2023-05-05T14:48:22.807Z,27.48
2023-05-05T14:53:25.478Z,27.65
2023-05-05T14:58:28.194Z,27.76
2023-05-05T15:03:31.087Z,27.30
2023-05-05T15:08:34.630Z,27.23
2023-05-05T15:13:40.416Z,26.96
2023-05-05T15:18:43.382Z,26.65
2023-05-05T15:23:47.202Z,26.33
2023-05-05T15:28:50.501Z,26.31
2023-05-05T15:33:53.302Z,26.50
2023-05-05T15:38:56.794Z,26.41
2023-05-05T15:44:00.622Z,26.45
2023-05-05T15:49:03.725Z,26.13
2023-05-05T15:54:06.436Z,25.78
2023-05-05T15:59:09.145Z,26.08
2023-05-05T16:04:12.259Z,26.06
2023-05-05T16:09:15.001Z,26.18
2023-05-05T16:14:17.881Z,26.35
2023-05-05T16:19:23.252Z,26.63
2023-05-05T16:24:26.168Z,26.86
2023-05-05T16:29:29.901Z,27.02
2023-05-05T16:34:33.009Z,27.13
2023-05-05T16:39:40.337Z,27.48
2023-05-05T16:44:43.320Z,27.54
2023-05-05T16:49:46.702Z,27.73
2023-05-05T16:54:55.545Z,27.98
2023-05-05T16:59:58.393Z,28.02
2023-05-05T17:05:04.936Z,28.26
2023-05-05T17:10:08.360Z,28.56
2023-05-05T17:15:11.589Z,29.12
2023-05-05T17:20:14.889Z,29.27
2023-05-05T17:25:17.703Z,29.45
2023-05-05T17:30:22.801Z,29.96
2023-05-05T17:35:25.725Z,30.16
2023-05-05T17:40:28.571Z,30.41
2023-05-05T17:45:32.036Z,30.54
2023-05-05T17:50:35.252Z,30.69
2023-05-05T17:55:38.226Z,30.68
2023-05-05T18:00:40.973Z,30.94
2023-05-05T18:05:43.689Z,31.11
2023-05-05T18:10:46.464Z,31.65
2023-05-05T18:15:49.140Z,31.93
2023-05-05T18:20:51.991Z,32.12
2023-05-05T18:25:54.764Z,32.24
2023-05-05T18:30:57.493Z,32.55
2023-05-05T18:36:02.172Z,32.82
2023-05-05T18:41:04.958Z,33.06
2023-05-05T18:46:07.899Z,33.35
2023-05-05T18:51:11.926Z,33.70
2023-05-05T18:56:14.631Z,33.77
2023-05-05T19:01:17.752Z,34.04
2023-05-05T19:06:20.703Z,34.21
2023-05-05T19:11:24.185Z,34.49
2023-05-05T19:16:27.799Z,34.78
2023-05-05T19:21:31.736Z,35.14
2023-05-05T19:26:34.494Z,35.56
2023-05-05T19:31:37.286Z,35.80
2023-05-05T19:36:40.081Z,36.23
2023-05-05T19:41:44.061Z,36.54
2023-05-05T19:46:48.242Z,36.83
2023-05-05T19:51:52.162Z,37.04
2023-05-05T19:56:55.440Z,37.33
2023-05-05T20:02:00.318Z,37.53
2023-05-05T20:07:04.468Z,37.76
2023-05-05T20:12:07.520Z,38.12
2023-05-05T20:17:10.280Z,38.29
2023-05-05T20:22:13.001Z,38.64
2023-05-05T20:27:15.823Z,38.97
2023-05-05T20:32:20.643Z,39.41
2023-05-05T20:37:23.523Z,39.47
2023-05-05T20:42:27.779Z,39.88
2023-05-05T20:47:30.759Z,39.95
2023-05-05T20:52:34.607Z,40.20
2023-05-05T20:57:37.656Z,40.49
2023-05-05T21:02:40.710Z,40.58
2023-05-05T21:07:47.074Z,40.97
2023-05-05T21:12:50.149Z,41.02
2023-05-05T21:17:53.373Z,41.43
2023-05-05T21:22:56.988Z,41.69
2023-05-05T21:27:59.658Z,41.76
2023-05-05T21:33:02.373Z,42.06
2023-05-05T21:38:05.179Z,42.46
2023-05-05T21:43:07.910Z,42.62
2023-05-05T21:48:10.686Z,42.69
2023-05-05T21:53:13.370Z,42.66
2023-05-05T21:58:16.632Z,43.18
2023-05-05T22:03:19.529Z,43.17
2023-05-05T22:08:22.382Z,43.47
2023-05-05T22:13:25.132Z,43.70
2023-05-05T22:18:27.930Z,44.09
2023-05-05T22:23:30.823Z,43.89
2023-05-05T22:28:33.607Z,43.83
2023-05-05T22:33:36.371Z,44.34
2023-05-05T22:38:39.102Z,44.41
2023-05-05T22:43:41.982Z,44.71
2023-05-05T22:48:45.016Z,44.94
2023-05-05T22:53:47.739Z,45.18
2023-05-05T22:58:50.552Z,45.41
2023-05-05T23:03:53.589Z,45.58
2023-05-05T23:08:56.309Z,45.46
2023-05-05T23:13:59.013Z,45.72
2023-05-05T23:19:01.714Z,45.90
2023-05-05T23:24:04.462Z,46.24
2023-05-05T23:29:07.377Z,46.39
2023-05-05T23:34:12.395Z,46.32
2023-05-05T23:39:15.114Z,46.32
2023-05-05T23:44:17.828Z,46.47
2023-05-05T23:49:20.781Z,46.82
2023-05-05T23:54:23.538Z,46.78
2023-05-05T23:59:26.610Z,47.01
